sensor_id;sensor_type;location;lat;lon;timestamp;pressure;altitude;pressure_sealevel;temperature;humidity
31538;BME280;18147;51.952;6.146;2024-02-21T00:01:17;102126.97;;;9.43;100.00
31538;BME280;18147;51.952;6.146;2024-02-21T00:03:43;102131.25;;;9.47;100.00
31538;BME280;18147;51.952;6.146;2024-02-21T00:06:08;102126.38;;;9.58;100.00
31538;BME280;18147;51.952;6.146;2024-02-21T00:08:34;102120.78;;;9.66;100.00
31538;BME280;18147;51.952;6.146;2024-02-21T00:10:59;102112.09;;;9.60;100.00
31538;BME280;18147;51.952;6.146;2024-02-21T00:13:24;102118.22;;;9.63;100.00
31538;BME280;18147;51.952;6.146;2024-02-21T00:15:50;102115.03;;;9.53;100.00
31538;BME280;18147;51.952;6.146;2024-02-21T00:18:15;102107.47;;;9.66;100.00
31538;BME280;18147;51.952;6.146;2024-02-21T00:20:41;102101.50;;;9.59;100.00
31538;BME280;18147;51.952;6.146;2024-02-21T00:23:06;102111.50;;;9.52;100.00
31538;BME280;18147;51.952;6.146;2024-02-21T00:25:31;102109.19;;;9.43;100.00
31538;BME280;18147;51.952;6.146;2024-02-21T00:27:57;102108.97;;;9.26;100.00
31538;BME280;18147;51.952;6.146;2024-02-21T00:30:22;102108.91;;;9.27;100.00
31538;BME280;18147;51.952;6.146;2024-02-21T00:32:48;102100.81;;;9.30;100.00
31538;BME280;18147;51.952;6.146;2024-02-21T00:35:14;102093.47;;;9.37;100.00
31538;BME280;18147;51.952;6.146;2024-02-21T00:37:39;102094.63;;;9.30;100.00
31538;BME280;18147;51.952;6.146;2024-02-21T00:40:05;102100.66;;;9.35;100.00
31538;BME280;18147;51.952;6.146;2024-02-21T00:42:31;102102.78;;;9.25;100.00
31538;BME280;18147;51.952;6.146;2024-02-21T00:44:56;102087.69;;;9.26;100.00
31538;BME280;18147;51.952;6.146;2024-02-21T00:47:21;102086.47;;;9.34;100.00
31538;BME280;18147;51.952;6.146;2024-02-21T00:49:47;102081.03;;;9.38;100.00
31538;BME280;18147;51.952;6.146;2024-02-21T00:52:12;102088.13;;;9.37;100.00
31538;BME280;18147;51.952;6.146;2024-02-21T00:54:38;102089.75;;;9.41;100.00
31538;BME280;18147;51.952;6.146;2024-02-21T00:57:03;102076.53;;;9.40;100.00
31538;BME280;18147;51.952;6.146;2024-02-21T00:59:29;102070.53;;;9.33;100.00
31538;BME280;18147;51.952;6.146;2024-02-21T01:01:54;102065.69;;;9.44;100.00
31538;BME280;18147;51.952;6.146;2024-02-21T01:04:19;102071.13;;;9.41;100.00
31538;BME280;18147;51.952;6.146;2024-02-21T01:06:45;102061.41;;;9.40;100.00
31538;BME280;18147;51.952;6.146;2024-02-21T01:09:11;102054.16;;;9.44;100.00
31538;BME280;18147;51.952;6.146;2024-02-21T01:11:36;102056.38;;;9.32;100.00
31538;BME280;18147;51.952;6.146;2024-02-21T01:14:02;102055.34;;;9.37;100.00
31538;BME280;18147;51.952;6.146;2024-02-21T01:16:27;102057.06;;;9.38;100.00
31538;BME280;18147;51.952;6.146;2024-02-21T01:18:53;102058.09;;;9.33;100.00
31538;BME280;18147;51.952;6.146;2024-02-21T01:21:18;102049.31;;;9.31;100.00
31538;BME280;18147;51.952;6.146;2024-02-21T01:23:44;102047.44;;;9.33;100.00
31538;BME280;18147;51.952;6.146;2024-02-21T01:26:09;102052.06;;;9.30;100.00
31538;BME280;18147;51.952;6.146;2024-02-21T01:28:38;102046.75;;;9.28;100.00
31538;BME280;18147;51.952;6.146;2024-02-21T01:31:04;102038.09;;;9.23;100.00
31538;BME280;18147;51.952;6.146;2024-02-21T01:33:29;102039.13;;;9.43;100.00
31538;BME280;18147;51.952;6.146;2024-02-21T01:36:03;102050.75;;;9.40;100.00
31538;BME280;18147;51.952;6.146;2024-02-21T01:38:28;102046.16;;;9.44;100.00
31538;BME280;18147;51.952;6.146;2024-02-21T01:40:54;102041.34;;;9.53;100.00
31538;BME280;18147;51.952;6.146;2024-02-21T01:43:20;102030.00;;;9.48;100.00
31538;BME280;18147;51.952;6.146;2024-02-21T01:45:52;102040.72;;;9.47;100.00
31538;BME280;18147;51.952;6.146;2024-02-21T01:48:18;102045.09;;;9.49;100.00
31538;BME280;18147;51.952;6.146;2024-02-21T01:50:45;102039.50;;;9.55;100.00
31538;BME280;18147;51.952;6.146;2024-02-21T01:53:12;102040.97;;;9.41;100.00
31538;BME280;18147;51.952;6.146;2024-02-21T01:55:44;102041.56;;;9.49;100.00
31538;BME280;18147;51.952;6.146;2024-02-21T01:58:10;102038.75;;;9.52;100.00
31538;BME280;18147;51.952;6.146;2024-02-21T02:00:36;102027.91;;;9.56;100.00
31538;BME280;18147;51.952;6.146;2024-02-21T02:03:03;102022.59;;;9.56;100.00
31538;BME280;18147;51.952;6.146;2024-02-21T02:05:29;102026.38;;;9.51;100.00
31538;BME280;18147;51.952;6.146;2024-02-21T02:07:55;102023.47;;;9.57;100.00
31538;BME280;18147;51.952;6.146;2024-02-21T02:10:20;102014.53;;;9.58;100.00
31538;BME280;18147;51.952;6.146;2024-02-21T02:12:45;102016.41;;;9.56;100.00
31538;BME280;18147;51.952;6.146;2024-02-21T02:15:11;102004.28;;;9.49;100.00
31538;BME280;18147;51.952;6.146;2024-02-21T02:17:36;101996.84;;;9.57;100.00
31538;BME280;18147;51.952;6.146;2024-02-21T02:20:02;101990.38;;;9.63;100.00
31538;BME280;18147;51.952;6.146;2024-02-21T02:22:31;101993.19;;;9.59;100.00
31538;BME280;18147;51.952;6.146;2024-02-21T02:24:58;101989.78;;;9.56;100.00
31538;BME280;18147;51.952;6.146;2024-02-21T02:27:24;101996.91;;;9.55;100.00
31538;BME280;18147;51.952;6.146;2024-02-21T02:29:50;101989.97;;;9.51;100.00
31538;BME280;18147;51.952;6.146;2024-02-21T02:32:15;101987.22;;;9.53;100.00
31538;BME280;18147;51.952;6.146;2024-02-21T02:34:41;101985.69;;;9.47;100.00
31538;BME280;18147;51.952;6.146;2024-02-21T02:37:06;101984.34;;;9.59;100.00
31538;BME280;18147;51.952;6.146;2024-02-21T02:39:32;101980.59;;;9.63;100.00
31538;BME280;18147;51.952;6.146;2024-02-21T02:41:57;101978.38;;;9.52;100.00
31538;BME280;18147;51.952;6.146;2024-02-21T02:44:23;101973.88;;;9.54;100.00
31538;BME280;18147;51.952;6.146;2024-02-21T02:46:49;101965.25;;;9.48;100.00
31538;BME280;18147;51.952;6.146;2024-02-21T02:49:14;101956.78;;;9.60;100.00
31538;BME280;18147;51.952;6.146;2024-02-21T02:51:43;101954.31;;;9.55;100.00
31538;BME280;18147;51.952;6.146;2024-02-21T02:54:10;101953.06;;;9.42;100.00
31538;BME280;18147;51.952;6.146;2024-02-21T02:56:35;101949.91;;;9.54;100.00
31538;BME280;18147;51.952;6.146;2024-02-21T02:59:00;101954.97;;;9.60;100.00
31538;BME280;18147;51.952;6.146;2024-02-21T03:01:26;101952.81;;;9.48;100.00
31538;BME280;18147;51.952;6.146;2024-02-21T03:03:52;101957.34;;;9.46;100.00
31538;BME280;18147;51.952;6.146;2024-02-21T03:06:18;101950.13;;;9.48;100.00
31538;BME280;18147;51.952;6.146;2024-02-21T03:08:43;101955.25;;;9.54;100.00
31538;BME280;18147;51.952;6.146;2024-02-21T03:11:08;101955.34;;;9.51;100.00
31538;BME280;18147;51.952;6.146;2024-02-21T03:13:36;101949.22;;;9.49;100.00
31538;BME280;18147;51.952;6.146;2024-02-21T03:16:01;101938.44;;;9.52;100.00
31538;BME280;18147;51.952;6.146;2024-02-21T03:18:27;101939.19;;;9.56;100.00
31538;BME280;18147;51.952;6.146;2024-02-21T03:20:52;101934.81;;;9.55;100.00
31538;BME280;18147;51.952;6.146;2024-02-21T03:23:17;101938.59;;;9.49;100.00
31538;BME280;18147;51.952;6.146;2024-02-21T03:25:43;101935.19;;;9.46;100.00
31538;BME280;18147;51.952;6.146;2024-02-21T03:28:08;101932.94;;;9.57;100.00
31538;BME280;18147;51.952;6.146;2024-02-21T03:30:34;101928.72;;;9.51;100.00
31538;BME280;18147;51.952;6.146;2024-02-21T03:32:59;101935.66;;;9.55;100.00
31538;BME280;18147;51.952;6.146;2024-02-21T03:35:25;101930.53;;;9.51;100.00
31538;BME280;18147;51.952;6.146;2024-02-21T03:37:53;101920.06;;;9.46;100.00
31538;BME280;18147;51.952;6.146;2024-02-21T03:40:18;101928.59;;;9.54;100.00
31538;BME280;18147;51.952;6.146;2024-02-21T03:42:44;101937.66;;;9.50;100.00
31538;BME280;18147;51.952;6.146;2024-02-21T03:45:09;101932.41;;;9.49;100.00
31538;BME280;18147;51.952;6.146;2024-02-21T03:47:35;101922.47;;;9.52;100.00
31538;BME280;18147;51.952;6.146;2024-02-21T03:50:00;101914.28;;;9.57;100.00
31538;BME280;18147;51.952;6.146;2024-02-21T03:52:25;101914.66;;;9.48;100.00
31538;BME280;18147;51.952;6.146;2024-02-21T03:54:51;101903.91;;;9.51;100.00
31538;BME280;18147;51.952;6.146;2024-02-21T03:57:16;101901.44;;;9.46;100.00
31538;BME280;18147;51.952;6.146;2024-02-21T03:59:42;101900.50;;;9.47;100.00
31538;BME280;18147;51.952;6.146;2024-02-21T04:02:08;101905.63;;;9.52;100.00
31538;BME280;18147;51.952;6.146;2024-02-21T04:04:34;101895.91;;;9.51;100.00
31538;BME280;18147;51.952;6.146;2024-02-21T04:07:02;101906.56;;;9.51;100.00
31538;BME280;18147;51.952;6.146;2024-02-21T04:09:32;101898.56;;;9.51;100.00
31538;BME280;18147;51.952;6.146;2024-02-21T04:11:59;101906.50;;;9.52;100.00
31538;BME280;18147;51.952;6.146;2024-02-21T04:14:24;101902.41;;;9.44;100.00
31538;BME280;18147;51.952;6.146;2024-02-21T04:16:50;101898.56;;;9.51;100.00
31538;BME280;18147;51.952;6.146;2024-02-21T04:19:15;101895.72;;;9.55;100.00
31538;BME280;18147;51.952;6.146;2024-02-21T04:21:40;101886.56;;;9.41;100.00
31538;BME280;18147;51.952;6.146;2024-02-21T04:24:06;101900.56;;;9.46;100.00
31538;BME280;18147;51.952;6.146;2024-02-21T04:26:32;101897.22;;;9.41;100.00
31538;BME280;18147;51.952;6.146;2024-02-21T04:28:57;101893.06;;;9.55;100.00
31538;BME280;18147;51.952;6.146;2024-02-21T04:31:23;101896.09;;;9.46;100.00
31538;BME280;18147;51.952;6.146;2024-02-21T04:33:48;101898.94;;;9.42;100.00
31538;BME280;18147;51.952;6.146;2024-02-21T04:36:13;101883.56;;;9.48;100.00
31538;BME280;18147;51.952;6.146;2024-02-21T04:38:39;101886.00;;;9.54;100.00
31538;BME280;18147;51.952;6.146;2024-02-21T04:41:06;101881.41;;;9.58;100.00
31538;BME280;18147;51.952;6.146;2024-02-21T04:43:31;101893.81;;;9.59;100.00
31538;BME280;18147;51.952;6.146;2024-02-21T04:45:57;101883.00;;;9.62;100.00
31538;BME280;18147;51.952;6.146;2024-02-21T04:48:22;101880.53;;;9.57;100.00
31538;BME280;18147;51.952;6.146;2024-02-21T04:50:47;101869.84;;;9.79;100.00
31538;BME280;18147;51.952;6.146;2024-02-21T04:53:13;101867.97;;;9.81;100.00
31538;BME280;18147;51.952;6.146;2024-02-21T04:55:38;101871.84;;;9.74;100.00
31538;BME280;18147;51.952;6.146;2024-02-21T04:58:05;101868.81;;;9.62;100.00
31538;BME280;18147;51.952;6.146;2024-02-21T05:00:30;101864.34;;;9.62;100.00
31538;BME280;18147;51.952;6.146;2024-02-21T05:02:56;101856.16;;;9.46;100.00
31538;BME280;18147;51.952;6.146;2024-02-21T05:05:21;101861.03;;;9.57;100.00
31538;BME280;18147;51.952;6.146;2024-02-21T05:07:47;101844.38;;;9.52;100.00
31538;BME280;18147;51.952;6.146;2024-02-21T05:10:12;101843.72;;;9.47;100.00
31538;BME280;18147;51.952;6.146;2024-02-21T05:12:37;101845.13;;;9.55;100.00
31538;BME280;18147;51.952;6.146;2024-02-21T05:15:03;101838.78;;;9.38;100.00
31538;BME280;18147;51.952;6.146;2024-02-21T05:17:29;101841.16;;;9.44;100.00
31538;BME280;18147;51.952;6.146;2024-02-21T05:19:54;101833.88;;;9.49;100.00
31538;BME280;18147;51.952;6.146;2024-02-21T05:22:20;101831.63;;;9.40;100.00
31538;BME280;18147;51.952;6.146;2024-02-21T05:24:45;101840.38;;;9.42;100.00
31538;BME280;18147;51.952;6.146;2024-02-21T05:27:10;101839.22;;;9.49;100.00
31538;BME280;18147;51.952;6.146;2024-02-21T05:29:36;101834.13;;;9.43;100.00
31538;BME280;18147;51.952;6.146;2024-02-21T05:32:01;101834.66;;;9.51;100.00
31538;BME280;18147;51.952;6.146;2024-02-21T05:34:27;101840.94;;;9.50;100.00
31538;BME280;18147;51.952;6.146;2024-02-21T05:36:53;101827.63;;;9.50;100.00
31538;BME280;18147;51.952;6.146;2024-02-21T05:39:18;101828.00;;;9.41;100.00
31538;BME280;18147;51.952;6.146;2024-02-21T05:41:44;101819.22;;;9.39;100.00
31538;BME280;18147;51.952;6.146;2024-02-21T05:44:10;101820.28;;;9.34;100.00
31538;BME280;18147;51.952;6.146;2024-02-21T05:46:36;101819.22;;;9.39;100.00
31538;BME280;18147;51.952;6.146;2024-02-21T05:49:01;101812.63;;;9.47;100.00
31538;BME280;18147;51.952;6.146;2024-02-21T05:51:26;101816.16;;;9.48;100.00
31538;BME280;18147;51.952;6.146;2024-02-21T05:53:52;101810.13;;;9.44;100.00
31538;BME280;18147;51.952;6.146;2024-02-21T05:56:17;101796.38;;;9.33;100.00
31538;BME280;18147;51.952;6.146;2024-02-21T05:58:43;101791.53;;;9.43;100.00
31538;BME280;18147;51.952;6.146;2024-02-21T06:01:09;101789.69;;;9.45;100.00
31538;BME280;18147;51.952;6.146;2024-02-21T06:03:35;101793.88;;;9.50;100.00
31538;BME280;18147;51.952;6.146;2024-02-21T06:06:01;101783.63;;;9.41;100.00
31538;BME280;18147;51.952;6.146;2024-02-21T06:08:27;101775.09;;;9.53;100.00
31538;BME280;18147;51.952;6.146;2024-02-21T06:10:52;101768.84;;;9.54;100.00
31538;BME280;18147;51.952;6.146;2024-02-21T06:13:22;101770.22;;;9.43;100.00
31538;BME280;18147;51.952;6.146;2024-02-21T06:15:48;101775.50;;;9.44;100.00
31538;BME280;18147;51.952;6.146;2024-02-21T06:18:16;101767.31;;;9.49;100.00
31538;BME280;18147;51.952;6.146;2024-02-21T06:20:42;101770.03;;;9.47;100.00
31538;BME280;18147;51.952;6.146;2024-02-21T06:23:08;101765.97;;;9.39;100.00
31538;BME280;18147;51.952;6.146;2024-02-21T06:25:33;101760.41;;;9.45;100.00
31538;BME280;18147;51.952;6.146;2024-02-21T06:27:59;101756.34;;;9.36;100.00
31538;BME280;18147;51.952;6.146;2024-02-21T06:30:24;101757.75;;;9.45;100.00
31538;BME280;18147;51.952;6.146;2024-02-21T06:32:50;101757.59;;;9.27;100.00
31538;BME280;18147;51.952;6.146;2024-02-21T06:35:15;101758.44;;;9.48;100.00
31538;BME280;18147;51.952;6.146;2024-02-21T06:37:42;101765.47;;;9.30;100.00
31538;BME280;18147;51.952;6.146;2024-02-21T06:40:07;101759.97;;;9.33;100.00
31538;BME280;18147;51.952;6.146;2024-02-21T06:42:33;101757.97;;;9.39;100.00
31538;BME280;18147;51.952;6.146;2024-02-21T06:44:59;101770.97;;;9.26;100.00
31538;BME280;18147;51.952;6.146;2024-02-21T06:47:24;101763.72;;;9.50;100.00
31538;BME280;18147;51.952;6.146;2024-02-21T06:49:50;101757.94;;;9.40;100.00
31538;BME280;18147;51.952;6.146;2024-02-21T06:52:19;101755.13;;;9.43;100.00
31538;BME280;18147;51.952;6.146;2024-02-21T06:54:49;101759.47;;;9.46;100.00
31538;BME280;18147;51.952;6.146;2024-02-21T06:57:14;101758.13;;;9.36;100.00
31538;BME280;18147;51.952;6.146;2024-02-21T06:59:41;101758.66;;;9.44;100.00
31538;BME280;18147;51.952;6.146;2024-02-21T07:02:07;101756.47;;;9.33;100.00
31538;BME280;18147;51.952;6.146;2024-02-21T07:04:33;101750.81;;;9.41;100.00
31538;BME280;18147;51.952;6.146;2024-02-21T07:06:58;101756.22;;;9.39;100.00
31538;BME280;18147;51.952;6.146;2024-02-21T07:09:24;101759.38;;;9.47;100.00
31538;BME280;18147;51.952;6.146;2024-02-21T07:11:49;101756.69;;;9.49;100.00
31538;BME280;18147;51.952;6.146;2024-02-21T07:14:15;101752.00;;;9.33;100.00
31538;BME280;18147;51.952;6.146;2024-02-21T07:16:43;101750.66;;;9.44;100.00
31538;BME280;18147;51.952;6.146;2024-02-21T07:19:08;101746.16;;;9.46;100.00
31538;BME280;18147;51.952;6.146;2024-02-21T07:21:34;101735.59;;;9.44;100.00
31538;BME280;18147;51.952;6.146;2024-02-21T07:23:59;101735.69;;;9.41;100.00
31538;BME280;18147;51.952;6.146;2024-02-21T07:26:25;101733.28;;;9.55;100.00
31538;BME280;18147;51.952;6.146;2024-02-21T07:28:50;101731.78;;;9.50;100.00
31538;BME280;18147;51.952;6.146;2024-02-21T07:31:15;101730.97;;;9.48;100.00
31538;BME280;18147;51.952;6.146;2024-02-21T07:33:41;101734.06;;;9.57;100.00
31538;BME280;18147;51.952;6.146;2024-02-21T07:36:07;101721.06;;;9.51;100.00
31538;BME280;18147;51.952;6.146;2024-02-21T07:38:33;101723.16;;;9.64;100.00
31538;BME280;18147;51.952;6.146;2024-02-21T07:40:59;101717.97;;;9.60;100.00
31538;BME280;18147;51.952;6.146;2024-02-21T07:43:24;101712.47;;;9.45;100.00
31538;BME280;18147;51.952;6.146;2024-02-21T07:45:52;101717.97;;;9.60;100.00
31538;BME280;18147;51.952;6.146;2024-02-21T07:48:18;101713.03;;;9.72;100.00
31538;BME280;18147;51.952;6.146;2024-02-21T07:50:44;101706.47;;;9.60;100.00
31538;BME280;18147;51.952;6.146;2024-02-21T07:53:09;101706.25;;;9.65;100.00
31538;BME280;18147;51.952;6.146;2024-02-21T07:55:35;101695.44;;;9.68;100.00
31538;BME280;18147;51.952;6.146;2024-02-21T07:58:00;101696.81;;;9.57;100.00
31538;BME280;18147;51.952;6.146;2024-02-21T08:00:26;101686.75;;;9.64;100.00
31538;BME280;18147;51.952;6.146;2024-02-21T08:02:51;101680.69;;;9.60;100.00
31538;BME280;18147;51.952;6.146;2024-02-21T08:05:17;101674.16;;;9.68;100.00
31538;BME280;18147;51.952;6.146;2024-02-21T08:07:43;101666.16;;;9.86;100.00
31538;BME280;18147;51.952;6.146;2024-02-21T08:10:08;101653.22;;;9.79;100.00
31538;BME280;18147;51.952;6.146;2024-02-21T08:12:34;101640.81;;;9.97;100.00
31538;BME280;18147;51.952;6.146;2024-02-21T08:15:00;101639.44;;;9.88;100.00
31538;BME280;18147;51.952;6.146;2024-02-21T08:17:25;101638.44;;;9.91;100.00
31538;BME280;18147;51.952;6.146;2024-02-21T08:19:51;101629.38;;;9.95;100.00
31538;BME280;18147;51.952;6.146;2024-02-21T08:22:16;101634.19;;;10.05;100.00
31538;BME280;18147;51.952;6.146;2024-02-21T08:24:42;101635.28;;;10.19;100.00
31538;BME280;18147;51.952;6.146;2024-02-21T08:27:07;101634.59;;;10.15;100.00
31538;BME280;18147;51.952;6.146;2024-02-21T08:29:32;101628.69;;;10.27;100.00
31538;BME280;18147;51.952;6.146;2024-02-21T08:31:58;101635.47;;;10.34;100.00
31538;BME280;18147;51.952;6.146;2024-02-21T08:34:23;101635.69;;;10.30;100.00
31538;BME280;18147;51.952;6.146;2024-02-21T08:36:49;101619.91;;;10.25;100.00
31538;BME280;18147;51.952;6.146;2024-02-21T08:39:15;101622.69;;;10.41;100.00
31538;BME280;18147;51.952;6.146;2024-02-21T08:41:42;101611.72;;;10.65;100.00
31538;BME280;18147;51.952;6.146;2024-02-21T08:44:07;101609.59;;;10.71;100.00
31538;BME280;18147;51.952;6.146;2024-02-21T08:46:33;101601.72;;;10.68;100.00
31538;BME280;18147;51.952;6.146;2024-02-21T08:48:59;101601.34;;;10.58;100.00
31538;BME280;18147;51.952;6.146;2024-02-21T08:51:24;101605.38;;;10.50;100.00
31538;BME280;18147;51.952;6.146;2024-02-21T08:53:50;101591.00;;;10.52;100.00
31538;BME280;18147;51.952;6.146;2024-02-21T08:56:15;101594.38;;;10.56;100.00
31538;BME280;18147;51.952;6.146;2024-02-21T08:58:41;101594.59;;;10.51;100.00
31538;BME280;18147;51.952;6.146;2024-02-21T09:01:07;101579.16;;;10.58;100.00
31538;BME280;18147;51.952;6.146;2024-02-21T09:03:36;101587.78;;;10.63;100.00
31538;BME280;18147;51.952;6.146;2024-02-21T09:06:03;101578.06;;;10.45;100.00
31538;BME280;18147;51.952;6.146;2024-02-21T09:08:29;101566.50;;;10.79;100.00
31538;BME280;18147;51.952;6.146;2024-02-21T09:10:54;101562.69;;;10.50;100.00
31538;BME280;18147;51.952;6.146;2024-02-21T09:13:20;101557.13;;;10.54;100.00
31538;BME280;18147;51.952;6.146;2024-02-21T09:15:46;101554.13;;;10.60;100.00
31538;BME280;18147;51.952;6.146;2024-02-21T09:18:12;101555.63;;;10.66;100.00
31538;BME280;18147;51.952;6.146;2024-02-21T09:20:37;101565.47;;;10.81;100.00
31538;BME280;18147;51.952;6.146;2024-02-21T09:23:03;101555.38;;;10.71;100.00
31538;BME280;18147;51.952;6.146;2024-02-21T09:25:28;101576.03;;;11.00;100.00
31538;BME280;18147;51.952;6.146;2024-02-21T09:27:54;101567.28;;;10.81;100.00
31538;BME280;18147;51.952;6.146;2024-02-21T09:30:20;101570.81;;;10.64;100.00
31538;BME280;18147;51.952;6.146;2024-02-21T09:32:45;101565.88;;;10.74;100.00
31538;BME280;18147;51.952;6.146;2024-02-21T09:35:11;101566.06;;;10.71;100.00
31538;BME280;18147;51.952;6.146;2024-02-21T09:37:40;101556.63;;;10.81;100.00
31538;BME280;18147;51.952;6.146;2024-02-21T09:40:06;101555.19;;;10.91;100.00
31538;BME280;18147;51.952;6.146;2024-02-21T09:42:40;101555.00;;;10.94;100.00
31538;BME280;18147;51.952;6.146;2024-02-21T09:45:20;101545.28;;;10.93;100.00
31538;BME280;18147;51.952;6.146;2024-02-21T09:48:19;101535.84;;;11.03;100.00
31538;BME280;18147;51.952;6.146;2024-02-21T09:50:49;101537.28;;;10.93;100.00
31538;BME280;18147;51.952;6.146;2024-02-21T09:53:15;101525.84;;;10.91;100.00
31538;BME280;18147;51.952;6.146;2024-02-21T09:55:42;101534.38;;;10.98;100.00
31538;BME280;18147;51.952;6.146;2024-02-21T09:58:08;101527.94;;;11.18;100.00
31538;BME280;18147;51.952;6.146;2024-02-21T10:00:38;101524.31;;;11.19;100.00
31538;BME280;18147;51.952;6.146;2024-02-21T10:03:03;101523.91;;;11.10;100.00
31538;BME280;18147;51.952;6.146;2024-02-21T10:05:35;101507.09;;;11.08;100.00
31538;BME280;18147;51.952;6.146;2024-02-21T10:08:01;101511.56;;;11.24;100.00
31538;BME280;18147;51.952;6.146;2024-02-21T10:10:27;101509.00;;;11.22;100.00
31538;BME280;18147;51.952;6.146;2024-02-21T10:12:54;101506.50;;;11.19;100.00
31538;BME280;18147;51.952;6.146;2024-02-21T10:15:24;101502.03;;;11.20;100.00
31538;BME280;18147;51.952;6.146;2024-02-21T10:17:57;101496.41;;;11.08;100.00
31538;BME280;18147;51.952;6.146;2024-02-21T10:20:23;101486.59;;;11.09;100.00
31538;BME280;18147;51.952;6.146;2024-02-21T10:22:49;101476.81;;;11.09;100.00
31538;BME280;18147;51.952;6.146;2024-02-21T10:25:14;101485.47;;;11.13;100.00
31538;BME280;18147;51.952;6.146;2024-02-21T10:27:40;101477.47;;;11.13;100.00
31538;BME280;18147;51.952;6.146;2024-02-21T10:30:08;101461.19;;;11.02;100.00
31538;BME280;18147;51.952;6.146;2024-02-21T10:32:48;101460.50;;;10.98;100.00
31538;BME280;18147;51.952;6.146;2024-02-21T10:35:14;101458.94;;;10.94;100.00
31538;BME280;18147;51.952;6.146;2024-02-21T10:37:39;101454.84;;;11.20;100.00
31538;BME280;18147;51.952;6.146;2024-02-21T10:40:05;101442.63;;;11.16;100.00
31538;BME280;18147;51.952;6.146;2024-02-21T10:42:32;101441.47;;;11.04;100.00
31538;BME280;18147;51.952;6.146;2024-02-21T10:45:01;101444.47;;;10.82;100.00
31538;BME280;18147;51.952;6.146;2024-02-21T10:47:31;101445.78;;;10.91;100.00
31538;BME280;18147;51.952;6.146;2024-02-21T10:50:02;101443.53;;;10.83;100.00
31538;BME280;18147;51.952;6.146;2024-02-21T10:52:46;101435.16;;;10.74;100.00
31538;BME280;18147;51.952;6.146;2024-02-21T10:55:20;101426.50;;;10.86;100.00
31538;BME280;18147;51.952;6.146;2024-02-21T10:57:49;101418.84;;;10.80;100.00
31538;BME280;18147;51.952;6.146;2024-02-21T11:00:17;101420.31;;;10.85;100.00
31538;BME280;18147;51.952;6.146;2024-02-21T11:02:43;101421.50;;;10.80;100.00
31538;BME280;18147;51.952;6.146;2024-02-21T11:05:09;101412.00;;;10.58;100.00
31538;BME280;18147;51.952;6.146;2024-02-21T11:07:36;101398.59;;;10.76;100.00
31538;BME280;18147;51.952;6.146;2024-02-21T11:10:02;101394.91;;;10.94;100.00
31538;BME280;18147;51.952;6.146;2024-02-21T11:12:32;101389.59;;;11.10;100.00
31538;BME280;18147;51.952;6.146;2024-02-21T11:15:06;101380.44;;;11.30;100.00
31538;BME280;18147;51.952;6.146;2024-02-21T11:17:32;101376.63;;;11.34;100.00
31538;BME280;18147;51.952;6.146;2024-02-21T11:19:57;101355.94;;;11.37;100.00
31538;BME280;18147;51.952;6.146;2024-02-21T11:22:24;101343.59;;;11.51;100.00
31538;BME280;18147;51.952;6.146;2024-02-21T11:24:54;101331.31;;;11.62;100.00
31538;BME280;18147;51.952;6.146;2024-02-21T11:27:22;101310.59;;;11.52;100.00
31538;BME280;18147;51.952;6.146;2024-02-21T11:29:57;101272.06;;;11.56;100.00
31538;BME280;18147;51.952;6.146;2024-02-21T11:32:25;101274.34;;;11.48;100.00
31538;BME280;18147;51.952;6.146;2024-02-21T11:37:19;101283.75;;;11.83;100.00
31538;BME280;18147;51.952;6.146;2024-02-21T11:39:44;101282.41;;;12.05;100.00
31538;BME280;18147;51.952;6.146;2024-02-21T11:42:10;101274.97;;;11.81;100.00
31538;BME280;18147;51.952;6.146;2024-02-21T11:44:37;101280.41;;;11.80;100.00
31538;BME280;18147;51.952;6.146;2024-02-21T11:47:08;101292.03;;;11.79;100.00
31538;BME280;18147;51.952;6.146;2024-02-21T11:49:38;101303.91;;;11.59;100.00
31538;BME280;18147;51.952;6.146;2024-02-21T11:52:05;101276.66;;;11.68;100.00
31538;BME280;18147;51.952;6.146;2024-02-21T11:54:31;101284.16;;;11.47;100.00
31538;BME280;18147;51.952;6.146;2024-02-21T11:56:57;101259.09;;;11.50;100.00
31538;BME280;18147;51.952;6.146;2024-02-21T11:59:22;101263.28;;;11.54;100.00
31538;BME280;18147;51.952;6.146;2024-02-21T12:01:48;101253.59;;;11.23;100.00
31538;BME280;18147;51.952;6.146;2024-02-21T12:04:15;101238.72;;;11.33;100.00
31538;BME280;18147;51.952;6.146;2024-02-21T12:06:43;101256.94;;;11.26;100.00
31538;BME280;18147;51.952;6.146;2024-02-21T12:09:09;101259.41;;;10.99;100.00
31538;BME280;18147;51.952;6.146;2024-02-21T12:11:35;101256.75;;;10.99;100.00
31538;BME280;18147;51.952;6.146;2024-02-21T12:14:01;101250.59;;;10.83;100.00
31538;BME280;18147;51.952;6.146;2024-02-21T12:16:29;101256.41;;;11.05;100.00
31538;BME280;18147;51.952;6.146;2024-02-21T12:18:56;101252.72;;;10.92;100.00
31538;BME280;18147;51.952;6.146;2024-02-21T12:21:25;101238.38;;;11.09;100.00
31538;BME280;18147;51.952;6.146;2024-02-21T12:23:53;101234.25;;;11.03;100.00
31538;BME280;18147;51.952;6.146;2024-02-21T12:26:18;101216.00;;;11.11;100.00
31538;BME280;18147;51.952;6.146;2024-02-21T12:28:44;101202.78;;;11.38;100.00
31538;BME280;18147;51.952;6.146;2024-02-21T12:31:09;101195.16;;;11.32;100.00
31538;BME280;18147;51.952;6.146;2024-02-21T12:33:34;101182.22;;;11.40;100.00
31538;BME280;18147;51.952;6.146;2024-02-21T12:36:00;101160.06;;;11.53;100.00
31538;BME280;18147;51.952;6.146;2024-02-21T12:38:25;101151.38;;;11.63;100.00
31538;BME280;18147;51.952;6.146;2024-02-21T12:40:51;101128.88;;;11.96;100.00
31538;BME280;18147;51.952;6.146;2024-02-21T12:43:17;101122.53;;;12.11;100.00